createdAt,value
2023-01-13T00:00:44.937Z,87.54
2023-01-13T00:03:38.565Z,87.40
2023-01-13T00:06:27.850Z,87.35
2023-01-13T00:09:21.884Z,87.32
2023-01-13T00:12:14.718Z,87.37
2023-01-13T00:15:08.905Z,87.29
2023-01-13T00:18:11.786Z,87.49
2023-01-13T00:21:07.640Z,87.42
2023-01-13T00:24:00.434Z,87.31
2023-01-13T00:26:54.352Z,87.33
2023-01-13T00:29:47.147Z,87.16
2023-01-13T00:32:22.311Z,86.98
2023-01-13T00:35:15.109Z,87.15
2023-01-13T00:38:00.542Z,87.14
2023-01-13T00:41:00.273Z,87.48
2023-01-13T00:43:52.173Z,87.70
2023-01-13T00:46:45.169Z,87.66
2023-01-13T00:49:39.119Z,87.58
2023-01-13T00:52:34.933Z,87.60
2023-01-13T00:55:27.852Z,87.76
2023-01-13T00:58:21.535Z,87.90
2023-01-13T01:01:12.682Z,87.91
2023-01-13T01:04:05.781Z,87.71
2023-01-13T01:06:58.637Z,88.05
2023-01-13T01:09:46.439Z,88.09
2023-01-13T01:12:39.350Z,88.04
2023-01-13T01:15:31.221Z,88.06
2023-01-13T01:18:24.205Z,87.89
2023-01-13T01:21:17.774Z,87.87
2023-01-13T01:24:11.234Z,87.97
2023-01-13T01:27:04.150Z,87.83
2023-01-13T01:29:57.121Z,87.75
2023-01-13T01:32:49.871Z,87.82
2023-01-13T01:35:43.723Z,87.58
2023-01-13T01:38:37.546Z,87.73
2023-01-13T01:41:32.989Z,87.79
2023-01-13T01:45:01.051Z,87.68
2023-01-13T01:47:59.649Z,87.60
2023-01-13T01:50:54.232Z,87.31
2023-01-13T01:53:41.886Z,87.29
2023-01-13T01:56:37.328Z,87.12
2023-01-13T01:59:34.930Z,86.87
2023-01-13T02:02:28.118Z,86.66
2023-01-13T02:05:23.163Z,86.48
2023-01-13T02:08:17.079Z,86.35
2023-01-13T02:11:30.436Z,86.39
2023-01-13T02:14:23.990Z,86.11
2023-01-13T02:17:28.762Z,85.98
2023-01-13T02:21:03.017Z,85.77
2023-01-13T02:24:42.494Z,85.94
2023-01-13T02:28:04.211Z,85.62
2023-01-13T02:31:17.409Z,85.60
2023-01-13T02:34:15.324Z,85.36
2023-01-13T02:37:14.200Z,85.22
2023-01-13T02:40:16.177Z,84.73
2023-01-13T02:43:33.037Z,84.79
2023-01-13T02:46:30.876Z,84.64
2023-01-13T02:49:33.202Z,84.51
2023-01-13T02:52:31.158Z,84.61
2023-01-13T02:55:29.915Z,84.70
2023-01-13T02:58:27.276Z,84.65
2023-01-13T03:01:21.195Z,84.77
2023-01-13T03:04:31.053Z,84.73
2023-01-13T03:07:59.187Z,84.64
2023-01-13T03:11:03.148Z,84.40
2023-01-13T03:14:01.533Z,84.39
2023-01-13T03:17:07.373Z,84.31
2023-01-13T03:20:07.733Z,84.29
2023-01-13T03:23:09.319Z,84.25
2023-01-13T03:26:08.988Z,84.14
2023-01-13T03:29:10.288Z,84.25
2023-01-13T03:32:13.422Z,83.95
2023-01-13T03:35:13.275Z,83.94
2023-01-13T03:38:12.258Z,83.91
2023-01-13T03:41:10.658Z,84.04
2023-01-13T03:44:33.756Z,84.03
2023-01-13T03:47:32.214Z,84.26
2023-01-13T03:50:29.735Z,84.35
2023-01-13T03:53:28.142Z,84.39
2023-01-13T03:56:29.375Z,84.36
2023-01-13T03:59:28.265Z,84.52
2023-01-13T04:02:28.465Z,84.38
2023-01-13T04:05:22.115Z,84.56
2023-01-13T04:08:20.336Z,84.68
2023-01-13T04:12:21.544Z,84.78
2023-01-13T04:14:33.553Z,85.01
2023-01-13T04:17:26.457Z,85.02
2023-01-13T04:20:14.959Z,84.94
2023-01-13T04:23:08.905Z,85.06
2023-01-13T04:26:03.100Z,85.05
2023-01-13T04:28:56.228Z,85.12
2023-01-13T04:31:49.942Z,85.25
2023-01-13T04:34:36.390Z,85.30
2023-01-13T04:37:29.612Z,85.24
2023-01-13T04:40:25.026Z,85.23
2023-01-13T04:43:18.649Z,84.82
2023-01-13T04:46:11.621Z,84.80
2023-01-13T04:49:04.591Z,84.49
2023-01-13T04:51:57.697Z,84.49
2023-01-13T04:54:53.102Z,84.08
2023-01-13T04:57:46.238Z,84.00
2023-01-13T05:00:39.598Z,84.00
2023-01-13T05:03:32.739Z,83.95
2023-01-13T05:06:26.237Z,83.88
2023-01-13T05:09:19.311Z,83.81
2023-01-13T05:12:30.069Z,83.65
2023-01-13T05:15:40.855Z,83.56
2023-01-13T05:18:33.909Z,83.41
2023-01-13T05:21:44.193Z,83.44
2023-01-13T05:24:54.834Z,83.30
2023-01-13T05:27:48.095Z,83.46
2023-01-13T05:30:44.399Z,83.52
2023-01-13T05:33:37.413Z,83.48
2023-01-13T05:36:30.507Z,83.25
2023-01-13T05:39:23.283Z,83.25
2023-01-13T05:42:33.659Z,83.17
2023-01-13T05:45:26.818Z,82.93
2023-01-13T05:48:21.403Z,82.90
2023-01-13T05:51:15.277Z,82.80
2023-01-13T05:54:08.180Z,82.95
2023-01-13T05:57:00.944Z,82.95
2023-01-13T05:59:53.877Z,83.03
2023-01-13T06:02:47.018Z,83.03
2023-01-13T06:05:40.366Z,82.77
2023-01-13T06:08:34.272Z,82.85
2023-01-13T06:11:19.907Z,82.69
2023-01-13T06:14:05.307Z,82.69
2023-01-13T06:16:58.213Z,82.69
2023-01-13T06:19:52.225Z,82.82
2023-01-13T06:22:47.641Z,82.84
2023-01-13T06:25:47.936Z,82.79
2023-01-13T06:28:41.187Z,82.66
2023-01-13T06:31:38.694Z,82.58
2023-01-13T06:34:31.942Z,82.51
2023-01-13T06:37:26.265Z,82.16
2023-01-13T06:40:19.796Z,82.11
2023-01-13T06:43:18.954Z,82.07
2023-01-13T06:46:04.866Z,82.01
2023-01-13T06:48:57.935Z,82.16
2023-01-13T06:51:50.947Z,81.93
2023-01-13T06:54:44.425Z,81.91
2023-01-13T06:57:31.013Z,81.85
2023-01-13T07:00:26.866Z,81.56
2023-01-13T07:03:20.213Z,81.41
2023-01-13T07:06:07.615Z,81.03
2023-01-13T07:09:00.876Z,80.72
2023-01-13T07:11:46.889Z,80.61
2023-01-13T07:14:57.249Z,80.38
2023-01-13T07:17:51.675Z,80.52
2023-01-13T07:20:44.595Z,80.35
2023-01-13T07:23:33.184Z,80.25
2023-01-13T07:26:25.953Z,79.77
2023-01-13T07:29:19.069Z,79.33
2023-01-13T07:32:11.843Z,78.88
2023-01-13T07:35:06.277Z,78.41
2023-01-13T07:37:59.331Z,78.07
2023-01-13T07:40:51.381Z,77.65
2023-01-13T07:43:44.504Z,77.42
2023-01-13T07:46:27.692Z,77.26
2023-01-13T07:49:13.192Z,76.73
2023-01-13T07:52:06.631Z,75.72
2023-01-13T07:54:42.301Z,75.43
2023-01-13T07:57:28.341Z,75.20
2023-01-13T08:00:21.929Z,74.66
2023-01-13T08:03:16.169Z,75.00
2023-01-13T08:05:59.122Z,74.99
2023-01-13T08:08:43.073Z,75.36
2023-01-13T08:11:29.298Z,75.79
2023-01-13T08:14:23.123Z,76.19
2023-01-13T08:17:05.309Z,76.41
2023-01-13T08:19:51.564Z,76.32
2023-01-13T08:22:35.156Z,76.30
2023-01-13T08:25:19.179Z,75.82
2023-01-13T08:28:11.933Z,75.63
2023-01-13T08:31:00.552Z,75.47
2023-01-13T08:33:47.623Z,75.15
2023-01-13T08:36:41.346Z,74.97
2023-01-13T08:39:36.132Z,74.98
2023-01-13T08:42:33.098Z,74.99
2023-01-13T08:45:17.005Z,75.03
2023-01-13T08:48:10.695Z,74.73
2023-01-13T08:51:08.359Z,74.51
2023-01-13T08:54:00.602Z,74.75
2023-01-13T08:56:53.962Z,75.07
2023-01-13T08:59:41.494Z,75.31
2023-01-13T09:02:34.431Z,75.09
2023-01-13T09:05:20.388Z,75.32
2023-01-13T09:08:15.070Z,75.53
2023-01-13T09:11:35.063Z,75.61
2023-01-13T09:14:30.212Z,75.73
2023-01-13T09:17:03.747Z,75.90
2023-01-13T09:19:47.165Z,75.76
2023-01-13T09:22:21.995Z,75.94
2023-01-13T09:25:14.978Z,75.93
2023-01-13T09:27:51.240Z,76.01
2023-01-13T09:30:37.673Z,76.12
2023-01-13T09:33:38.950Z,76.17
2023-01-13T09:36:31.748Z,75.99
2023-01-13T09:39:26.304Z,75.64
2023-01-13T09:42:44.068Z,75.10
2023-01-13T09:45:35.030Z,74.45
2023-01-13T09:48:31.571Z,73.47
2023-01-13T09:51:33.220Z,73.26
2023-01-13T09:54:32.967Z,73.02
2023-01-13T09:57:26.275Z,73.07
2023-01-13T10:00:25.292Z,73.03
2023-01-13T10:03:27.711Z,73.60
2023-01-13T10:06:22.543Z,73.40
2023-01-13T10:09:16.024Z,72.92
2023-01-13T10:12:31.835Z,72.80
2023-01-13T10:15:23.218Z,72.69
2023-01-13T10:18:20.543Z,72.53
2023-01-13T10:21:28.949Z,72.26
2023-01-13T10:24:30.838Z,72.58
2023-01-13T10:27:26.393Z,72.93
2023-01-13T10:30:19.935Z,72.99
2023-01-13T10:33:18.884Z,72.99
2023-01-13T10:36:21.577Z,72.74
2023-01-13T10:38:57.942Z,72.50
2023-01-13T10:41:51.219Z,72.67
2023-01-13T10:44:53.065Z,72.57
2023-01-13T10:48:04.661Z,72.44
2023-01-13T10:50:58.149Z,72.55
2023-01-13T10:53:55.472Z,72.66
2023-01-13T10:56:40.535Z,73.13
2023-01-13T10:59:35.082Z,73.18
2023-01-13T11:02:33.092Z,73.47
2023-01-13T11:05:28.482Z,73.55
2023-01-13T11:08:23.884Z,73.19
2023-01-13T11:11:03.206Z,73.32
2023-01-13T11:14:16.871Z,73.23
2023-01-13T11:16:56.443Z,73.15
2023-01-13T11:19:45.096Z,73.36
2023-01-13T11:22:46.093Z,73.68
2023-01-13T11:25:46.546Z,73.74
2023-01-13T11:28:48.588Z,73.81
2023-01-13T11:31:47.697Z,74.15
2023-01-13T11:34:43.416Z,73.84
2023-01-13T11:37:43.066Z,73.58
2023-01-13T11:40:33.823Z,73.53
2023-01-13T11:43:28.049Z,73.72
2023-01-13T11:46:22.405Z,73.50
2023-01-13T11:49:22.404Z,73.88
2023-01-13T11:52:20.792Z,74.12
2023-01-13T11:55:30.953Z,74.11
2023-01-13T11:58:29.089Z,74.27
2023-01-13T12:01:56.764Z,74.31
2023-01-13T12:05:06.921Z,74.48
2023-01-13T12:07:56.989Z,74.50
2023-01-13T12:11:02.725Z,74.43
2023-01-13T12:14:01.211Z,74.71
2023-01-13T12:16:43.702Z,74.99
2023-01-13T12:19:32.836Z,75.11
2023-01-13T12:22:29.823Z,75.16
2023-01-13T12:25:33.728Z,75.31
2023-01-13T12:28:26.955Z,75.32
2023-01-13T12:31:15.350Z,75.43
2023-01-13T12:34:07.645Z,75.67
2023-01-13T12:37:02.846Z,75.78
2023-01-13T12:40:12.808Z,76.03
2023-01-13T12:43:26.013Z,76.27
2023-01-13T12:46:36.796Z,76.23
2023-01-13T12:49:29.443Z,76.35
2023-01-13T12:52:22.990Z,76.45
2023-01-13T12:55:10.328Z,76.50
2023-01-13T12:58:19.416Z,76.25
2023-01-13T13:01:16.914Z,76.29
2023-01-13T13:04:12.947Z,76.20
2023-01-13T13:07:12.037Z,76.30
2023-01-13T13:10:21.835Z,76.47
2023-01-13T13:13:43.900Z,76.63
2023-01-13T13:17:52.519Z,77.01
2023-01-13T13:20:03.423Z,77.01
2023-01-13T13:22:56.525Z,76.93
2023-01-13T13:26:07.340Z,76.75
2023-01-13T13:29:21.953Z,76.96
2023-01-13T13:32:12.016Z,76.92
2023-01-13T13:34:54.188Z,77.05
2023-01-13T13:38:05.786Z,77.13
2023-01-13T13:41:03.605Z,77.20
2023-01-13T13:44:01.821Z,77.62
2023-01-13T13:46:49.224Z,77.56
2023-01-13T13:49:41.447Z,77.50
2023-01-13T13:52:22.952Z,77.30
2023-01-13T13:55:21.921Z,76.98
2023-01-13T13:58:17.747Z,76.86
2023-01-13T14:01:26.026Z,77.17
2023-01-13T14:04:16.981Z,77.25
2023-01-13T14:07:32.858Z,77.43
2023-01-13T14:10:24.913Z,77.73
2023-01-13T14:13:21.141Z,77.85
2023-01-13T14:16:17.329Z,77.92
2023-01-13T14:18:59.532Z,77.84
2023-01-13T14:21:52.574Z,77.81
2023-01-13T14:25:00.750Z,77.82
2023-01-13T14:27:54.560Z,77.87
2023-01-13T14:30:47.910Z,78.08
2023-01-13T14:33:44.386Z,78.45
2023-01-13T14:36:40.979Z,78.61
2023-01-13T14:39:43.011Z,78.89
2023-01-13T14:42:35.721Z,78.97
2023-01-13T14:45:33.242Z,79.00
2023-01-13T14:48:35.577Z,79.12
2023-01-13T14:51:30.811Z,79.08
2023-01-13T14:54:44.725Z,79.28
2023-01-13T14:57:39.640Z,79.60
2023-01-13T15:00:33.649Z,79.76
2023-01-13T15:03:20.555Z,80.04
2023-01-13T15:06:27.393Z,80.23
2023-01-13T15:09:27.286Z,80.16
2023-01-13T15:12:33.625Z,80.29
2023-01-13T15:15:30.271Z,80.27
2023-01-13T15:18:23.271Z,80.38
2023-01-13T15:21:17.317Z,80.37
2023-01-13T15:24:10.700Z,80.52
2023-01-13T15:27:05.604Z,80.73
2023-01-13T15:29:51.687Z,80.89
2023-01-13T15:32:44.033Z,80.90
2023-01-13T15:35:38.560Z,80.89
2023-01-13T15:38:31.670Z,80.86
2023-01-13T15:41:38.713Z,80.69
2023-01-13T15:44:49.067Z,80.48
2023-01-13T15:47:41.885Z,80.32
2023-01-13T15:50:38.393Z,80.27
2023-01-13T15:53:31.531Z,80.25
2023-01-13T15:56:27.493Z,80.37
2023-01-13T15:59:23.290Z,80.51
2023-01-13T16:02:18.443Z,80.35
2023-01-13T16:05:11.927Z,80.24
2023-01-13T16:08:03.304Z,79.88
2023-01-13T16:10:56.563Z,79.71
2023-01-13T16:13:43.401Z,79.56
2023-01-13T16:16:31.013Z,79.40
2023-01-13T16:19:16.837Z,79.43
2023-01-13T16:22:01.899Z,79.34
2023-01-13T16:24:55.103Z,79.45
2023-01-13T16:27:48.385Z,79.55
2023-01-13T16:30:41.506Z,79.41
2023-01-13T16:33:34.824Z,79.20
2023-01-13T16:36:22.004Z,79.13
2023-01-13T16:39:23.542Z,78.79
2023-01-13T16:42:07.752Z,78.53
2023-01-13T16:45:08.271Z,78.53
2023-01-13T16:48:00.242Z,78.56
2023-01-13T16:50:53.521Z,78.56
2023-01-13T16:53:39.809Z,78.73
2023-01-13T16:56:31.904Z,78.84
2023-01-13T16:59:23.387Z,78.75
2023-01-13T17:02:20.245Z,78.88
2023-01-13T17:05:07.026Z,78.83
2023-01-13T17:08:01.674Z,78.71
2023-01-13T17:10:48.446Z,78.68
2023-01-13T17:13:41.690Z,78.66
2023-01-13T17:16:22.923Z,78.74
2023-01-13T17:19:08.617Z,78.77
2023-01-13T17:22:04.835Z,78.89
2023-01-13T17:24:57.845Z,79.06
2023-01-13T17:27:50.985Z,79.08
2023-01-13T17:30:24.270Z,79.13
2023-01-13T17:33:17.343Z,79.07
2023-01-13T17:36:12.396Z,79.23
2023-01-13T17:39:05.422Z,79.18
2023-01-13T17:41:58.374Z,79.26
2023-01-13T17:44:51.634Z,79.59
2023-01-13T17:47:35.349Z,79.64
2023-01-13T17:50:20.081Z,79.70
2023-01-13T17:53:12.887Z,79.40
2023-01-13T17:55:55.025Z,79.40
2023-01-13T17:58:48.439Z,79.25
2023-01-13T18:01:40.824Z,78.95
2023-01-13T18:04:33.855Z,78.83
2023-01-13T18:07:27.032Z,78.79
2023-01-13T18:10:20.586Z,78.89
2023-01-13T18:13:13.836Z,78.93
2023-01-13T18:16:08.545Z,79.09
2023-01-13T18:19:18.966Z,79.01
2023-01-13T18:22:32.041Z,78.94
2023-01-13T18:25:41.253Z,78.98
2023-01-13T18:28:34.190Z,79.09
2023-01-13T18:31:27.449Z,79.18
2023-01-13T18:34:12.987Z,79.35
2023-01-13T18:36:58.471Z,79.62
2023-01-13T18:39:51.647Z,80.20
2023-01-13T18:42:54.521Z,80.79
2023-01-13T18:45:52.917Z,81.17
2023-01-13T18:48:45.673Z,81.22
2023-01-13T18:51:32.303Z,81.24
2023-01-13T18:54:25.568Z,81.29
2023-01-13T18:57:13.716Z,81.37
2023-01-13T18:59:58.195Z,81.03
2023-01-13T19:05:41.686Z,81.01
2023-01-13T19:08:34.994Z,81.11
2023-01-13T19:11:13.600Z,81.11
2023-01-13T19:13:58.761Z,81.36
2023-01-13T19:16:42.712Z,81.24
2023-01-13T19:19:18.334Z,81.43
2023-01-13T19:22:12.243Z,81.47
2023-01-13T19:25:06.080Z,81.30
2023-01-13T19:27:51.515Z,81.40
2023-01-13T19:30:45.029Z,81.40
2023-01-13T19:33:33.590Z,81.50
2023-01-13T19:36:27.043Z,81.59
2023-01-13T19:39:20.145Z,81.73
2023-01-13T19:42:32.967Z,81.75
2023-01-13T19:45:32.877Z,81.91
2023-01-13T19:48:26.316Z,81.92
2023-01-13T19:51:22.954Z,81.62
2023-01-13T19:54:19.856Z,81.57
2023-01-13T19:57:05.364Z,81.36
2023-01-13T19:59:58.849Z,81.37
2023-01-13T20:02:53.332Z,81.48
2023-01-13T20:05:46.373Z,81.70
2023-01-13T20:08:39.375Z,81.93
2023-01-13T20:11:33.279Z,82.34
2023-01-13T20:14:26.415Z,82.62
2023-01-13T20:17:22.160Z,83.13
2023-01-13T20:20:09.097Z,83.15
2023-01-13T20:22:42.225Z,83.30
2023-01-13T20:25:29.013Z,83.39
2023-01-13T20:28:22.160Z,83.55
2023-01-13T20:31:16.336Z,83.77
2023-01-13T20:34:10.117Z,83.89
2023-01-13T20:37:03.105Z,83.95
2023-01-13T20:39:58.172Z,84.10
2023-01-13T20:42:53.212Z,83.90
2023-01-13T20:45:46.133Z,83.76
2023-01-13T20:48:39.509Z,83.65
2023-01-13T20:51:32.359Z,83.51
2023-01-13T20:54:26.177Z,83.52
2023-01-13T20:57:19.515Z,83.45
2023-01-13T21:00:13.882Z,83.48
2023-01-13T21:03:05.427Z,83.34
2023-01-13T21:05:59.958Z,83.07
2023-01-13T21:09:14.081Z,82.95
2023-01-13T21:12:25.552Z,82.94
2023-01-13T21:15:18.437Z,82.74
2023-01-13T21:18:10.083Z,82.66
2023-01-13T21:21:13.207Z,82.58
2023-01-13T21:24:06.442Z,82.47
2023-01-13T21:26:59.643Z,82.55
2023-01-13T21:29:52.461Z,82.47
2023-01-13T21:32:38.996Z,82.44
2023-01-13T21:35:31.888Z,82.08
2023-01-13T21:38:27.289Z,81.96
2023-01-13T21:41:40.555Z,81.86
2023-01-13T21:44:53.507Z,81.96
2023-01-13T21:47:52.255Z,82.29
2023-01-13T21:50:45.447Z,82.67
2023-01-13T21:53:30.924Z,83.02
2023-01-13T21:56:24.069Z,83.46
2023-01-13T21:59:17.272Z,83.63
2023-01-13T22:02:30.104Z,83.91
2023-01-13T22:05:24.803Z,83.98
2023-01-13T22:08:18.870Z,84.11
2023-01-13T22:11:14.356Z,84.32
2023-01-13T22:14:09.413Z,84.17
2023-01-13T22:17:03.972Z,84.76
2023-01-13T22:19:59.321Z,85.01
2023-01-13T22:22:52.485Z,85.23
2023-01-13T22:25:47.309Z,85.41
2023-01-13T22:28:44.318Z,85.66
2023-01-13T22:31:39.296Z,85.66
2023-01-13T22:34:32.147Z,85.50
2023-01-13T22:37:18.713Z,85.45
2023-01-13T22:40:12.822Z,85.52
2023-01-13T22:43:06.164Z,85.50
2023-01-13T22:46:14.255Z,85.71
2023-01-13T22:49:07.068Z,85.69
2023-01-13T22:51:59.750Z,85.86
2023-01-13T22:54:52.521Z,85.95
2023-01-13T22:57:48.069Z,85.71
2023-01-13T23:00:41.937Z,85.67
2023-01-13T23:03:34.843Z,85.75
2023-01-13T23:06:29.238Z,85.63
2023-01-13T23:09:22.020Z,85.69
2023-01-13T23:12:15.005Z,85.73
2023-01-13T23:15:09.203Z,86.01
2023-01-13T23:17:55.114Z,86.22
2023-01-13T23:20:48.628Z,86.63
2023-01-13T23:23:41.794Z,86.71
2023-01-13T23:26:35.780Z,86.90
2023-01-13T23:29:28.759Z,86.97
2023-01-13T23:32:22.682Z,86.96
2023-01-13T23:35:15.761Z,86.89
2023-01-13T23:38:08.736Z,86.86
2023-01-13T23:41:02.165Z,86.84
2023-01-13T23:43:56.265Z,86.73
2023-01-13T23:46:49.085Z,87.07
2023-01-13T23:49:42.208Z,87.10
2023-01-13T23:52:36.069Z,87.28
2023-01-13T23:56:16.564Z,87.47
2023-01-13T23:58:44.677Z,87.41
